Time;durP1;ratioP1;P1;durP2;ratioP2;P2;SDS_P1;SDS_P2;PMS_P1;PMS_P2;Temp;Humidity;BMP_temperature;BMP_pressure;BME280_temperature;BME280_humidity;BME280_pressure;Samples;Min_cycle;Max_cycle;Signal;HPM_P1;HPM_P2
2023/04/27 00:02:07;;;;;;;3.92;1.90;;;;;;;18.68;35.49;101979.06;5021766;28;20267;-71
2023/04/27 00:04:32;;;;;;;3.95;1.90;;;;;;;18.65;35.51;101976.59;5021310;28;20394;-68
2023/04/27 00:06:58;;;;;;;4.63;1.90;;;;;;;18.65;35.27;101978.41;5021739;28;20033;-70
2023/04/27 00:09:23;;;;;;;3.73;1.80;;;;;;;18.64;35.48;101980.22;5020118;28;20381;-69
2023/04/27 00:11:48;;;;;;;4.38;1.90;;;;;;;18.65;35.40;101986.34;5020160;28;20262;-70
2023/04/27 00:14:13;;;;;;;5.93;2.20;;;;;;;18.65;35.38;101983.69;5021329;28;20040;-70
2023/04/27 00:16:39;;;;;;;4.32;2.20;;;;;;;18.62;35.29;101982.09;5021132;28;20127;-68
2023/04/27 00:19:04;;;;;;;3.65;2.00;;;;;;;18.62;35.42;101987.38;5021724;28;20057;-71
2023/04/27 00:21:30;;;;;;;4.35;2.15;;;;;;;18.60;35.59;101984.00;5021393;28;20060;-69
2023/04/27 00:23:55;;;;;;;3.85;1.92;;;;;;;18.62;35.50;101991.81;5020603;28;20061;-70
2023/04/27 00:26:21;;;;;;;6.25;1.80;;;;;;;18.58;35.38;101985.91;5020926;28;20084;-70
2023/04/27 00:28:46;;;;;;;3.75;1.83;;;;;;;18.61;35.29;101985.69;5020934;28;20120;-70
2023/04/27 00:31:12;;;;;;;4.78;2.30;;;;;;;18.59;35.42;101989.38;5021145;28;20021;-70
2023/04/27 00:33:37;;;;;;;4.20;1.92;;;;;;;18.56;35.40;101986.94;5020667;28;20044;-70
2023/04/27 00:36:02;;;;;;;5.65;2.10;;;;;;;18.54;35.46;101984.38;5020939;28;20033;-69
2023/04/27 00:38:29;;;;;;;4.75;1.70;;;;;;;18.54;35.54;101975.63;5020724;28;20044;-70
2023/04/27 00:41:05;;;;;;;4.35;1.90;;;;;;;18.53;35.46;101984.50;5020909;28;20858;-71
2023/04/27 00:43:31;;;;;;;4.28;1.70;;;;;;;18.52;35.37;101980.13;5020572;28;20045;-69
2023/04/27 00:45:57;;;;;;;4.15;1.70;;;;;;;18.54;35.77;101984.38;5021007;28;20045;-70
2023/04/27 00:48:23;;;;;;;4.60;1.98;;;;;;;18.51;35.15;101984.59;5021084;28;20041;-69
2023/04/27 00:50:49;;;;;;;6.63;3.35;;;;;;;18.52;35.06;101983.66;5020757;28;20033;-71
2023/04/27 00:53:14;;;;;;;4.30;2.10;;;;;;;18.50;35.28;101980.28;5020286;28;20044;-70
2023/04/27 00:55:40;;;;;;;5.47;1.85;;;;;;;18.50;35.42;101977.63;5020592;28;20480;-70
2023/04/27 00:58:05;;;;;;;4.28;2.00;;;;;;;18.49;35.32;101981.22;5019426;28;20029;-70
2023/04/27 01:00:30;;;;;;;3.85;1.88;;;;;;;18.49;35.17;101987.31;5020495;28;20032;-70
2023/04/27 01:02:56;;;;;;;3.72;2.05;;;;;;;18.49;35.28;101984.69;5020600;28;20038;-68
2023/04/27 01:05:24;;;;;;;4.72;1.90;;;;;;;18.46;35.36;101974.31;5021293;28;20128;-70
2023/04/27 01:07:49;;;;;;;4.25;2.08;;;;;;;18.50;35.33;101982.91;5024357;28;20037;-68
2023/04/27 01:10:14;;;;;;;3.30;1.85;;;;;;;18.47;34.94;101970.75;5024694;28;20052;-70
2023/04/27 01:12:40;;;;;;;5.47;2.10;;;;;;;18.47;35.56;101980.47;5024106;28;20034;-69
2023/04/27 01:15:06;;;;;;;5.80;2.17;;;;;;;18.47;35.49;101978.66;5024408;28;20324;-68
2023/04/27 01:17:31;;;;;;;3.83;2.20;;;;;;;18.46;35.45;101978.75;5024368;28;20072;-68
2023/04/27 01:19:58;;;;;;;4.57;2.00;;;;;;;18.45;35.24;101982.34;5024397;28;20077;-69
2023/04/27 01:22:23;;;;;;;3.70;2.08;;;;;;;18.41;35.26;101981.69;5023768;28;20050;-70
2023/04/27 01:24:49;;;;;;;5.07;2.15;;;;;;;18.43;35.00;101986.88;5024170;28;20033;-69
2023/04/27 01:27:14;;;;;;;5.50;2.17;;;;;;;18.43;34.97;101986.88;5024297;28;20033;-69
2023/04/27 01:29:39;;;;;;;5.07;1.93;;;;;;;18.42;34.90;101988.69;5023836;28;20324;-69
2023/04/27 01:32:05;;;;;;;3.97;1.90;;;;;;;18.42;34.86;101990.44;5024340;28;20652;-68
2023/04/27 01:34:30;;;;;;;4.45;2.10;;;;;;;18.40;34.85;101987.91;5024151;28;20042;-70
2023/04/27 01:36:56;;;;;;;3.90;1.95;;;;;;;18.38;35.06;101979.25;5024072;28;20461;-70
2023/04/27 01:39:21;;;;;;;4.45;2.08;;;;;;;18.39;34.95;101980.97;5023643;28;20481;-69
2023/04/27 01:41:47;;;;;;;4.22;2.05;;;;;;;18.35;34.92;101973.34;5024088;28;20037;-70
2023/04/27 01:44:12;;;;;;;5.38;2.13;;;;;;;18.36;34.81;101978.50;5023364;28;20288;-71
2023/04/27 01:46:37;;;;;;;4.63;2.20;;;;;;;18.36;35.17;101981.16;5023744;28;20091;-69
2023/04/27 01:49:02;;;;;;;4.22;2.10;;;;;;;18.34;34.90;101983.06;5023563;28;20049;-70
2023/04/27 01:51:28;;;;;;;4.32;2.08;;;;;;;18.34;35.08;101979.56;5023846;28;20039;-69
2023/04/27 01:53:53;;;;;;;4.37;2.00;;;;;;;18.31;34.69;101970.06;5023264;28;20033;-69
2023/04/27 01:56:18;;;;;;;4.88;2.00;;;;;;;18.30;34.97;101971.81;5023273;28;20262;-69
2023/04/27 01:58:43;;;;;;;3.72;1.92;;;;;;;18.31;34.74;101967.41;5023568;28;20598;-69
2023/04/27 02:01:09;;;;;;;4.43;2.15;;;;;;;18.31;35.06;101968.25;5023816;28;20041;-70
2023/04/27 02:03:34;;;;;;;4.15;2.00;;;;;;;18.30;34.88;101971.00;5023110;28;20033;-69
2023/04/27 02:06:00;;;;;;;7.43;2.17;;;;;;;18.30;35.26;101971.00;5023551;28;20068;-70
2023/04/27 02:08:25;;;;;;;4.70;2.00;;;;;;;18.29;35.06;101967.50;5023233;28;20033;-70
2023/04/27 02:10:51;;;;;;;5.53;2.40;;;;;;;18.29;35.03;101962.25;5023372;28;20033;-69
2023/04/27 02:13:16;;;;;;;4.13;1.95;;;;;;;18.29;34.96;101964.00;5023042;28;20033;-68
2023/04/27 02:15:41;;;;;;;4.72;2.00;;;;;;;18.29;35.07;101964.00;5022826;28;20037;-69
2023/04/27 02:18:07;;;;;;;4.90;2.35;;;;;;;18.29;34.97;101969.28;5023313;28;20108;-69
2023/04/27 02:20:32;;;;;;;4.68;2.38;;;;;;;18.26;34.86;101956.28;5023366;28;20108;-70
2023/04/27 02:22:58;;;;;;;5.82;2.10;;;;;;;18.28;34.84;101957.91;5022713;28;20041;-70
2023/04/27 02:25:23;;;;;;;3.95;1.90;;;;;;;18.25;34.85;101958.09;5023154;28;20037;-70
2023/04/27 02:27:49;;;;;;;4.50;1.88;;;;;;;18.24;34.94;101953.75;5023028;28;20064;-71
2023/04/27 02:30:14;;;;;;;4.70;1.77;;;;;;;18.25;34.64;101947.53;5022896;28;20033;-69
2023/04/27 02:32:40;;;;;;;4.15;2.10;;;;;;;18.22;34.93;101947.72;5022775;28;20448;-70
2023/04/27 02:35:06;;;;;;;4.57;1.95;;;;;;;18.22;34.68;101952.16;5022714;28;20159;-69
2023/04/27 02:37:32;;;;;;;4.38;2.30;;;;;;;18.21;34.71;101945.19;5023128;28;20046;-69
2023/04/27 02:39:58;;;;;;;5.28;2.05;;;;;;;18.22;34.93;101949.53;5022690;28;20033;-69
2023/04/27 02:42:23;;;;;;;4.55;2.00;;;;;;;18.21;34.69;101942.53;5022671;28;20385;-69
2023/04/27 02:44:48;;;;;;;5.07;2.20;;;;;;;18.21;34.88;101947.81;5022335;28;20037;-70
2023/04/27 02:47:14;;;;;;;4.10;2.00;;;;;;;18.19;34.84;101947.94;5023140;28;20035;-69
2023/04/27 02:49:39;;;;;;;3.83;2.03;;;;;;;18.22;34.78;101949.53;5022479;28;20296;-69
2023/04/27 02:52:05;;;;;;;4.80;2.10;;;;;;;18.19;34.97;101955.00;5022781;28;20061;-68
2023/04/27 02:54:30;;;;;;;5.45;2.20;;;;;;;18.17;34.72;101947.19;5022321;28;20433;-70
2023/04/27 02:56:56;;;;;;;6.40;2.08;;;;;;;18.16;34.76;101950.75;5022697;28;20585;-69
2023/04/27 02:59:21;;;;;;;4.03;1.80;;;;;;;18.18;34.86;101951.50;5021033;28;20113;-71
2023/04/27 03:01:47;;;;;;;5.22;1.67;;;;;;;18.19;34.60;101952.38;5020763;28;20270;-69
2023/04/27 03:04:12;;;;;;;4.80;2.08;;;;;;;18.17;34.62;101946.34;5022215;28;20021;-68
2023/04/27 03:06:38;;;;;;;4.72;1.92;;;;;;;18.16;34.67;101942.84;5022239;28;20083;-68
2023/04/27 03:09:04;;;;;;;4.50;2.08;;;;;;;18.17;34.49;101946.34;5022713;28;20095;-70
2023/04/27 03:11:29;;;;;;;5.30;2.10;;;;;;;18.15;34.38;101937.66;5022346;28;20152;-69
2023/04/27 03:13:55;;;;;;;4.15;2.10;;;;;;;18.14;34.79;101942.09;5021977;28;20112;-68
2023/04/27 03:16:20;;;;;;;6.18;2.13;;;;;;;18.13;34.46;101940.41;5021792;28;20056;-68
2023/04/27 03:18:45;;;;;;;6.03;2.33;;;;;;;18.13;34.30;101951.81;5022430;28;20044;-70
2023/04/27 03:21:12;;;;;;;4.45;2.05;;;;;;;18.13;34.32;101948.31;5022014;28;20044;-70
2023/04/27 03:23:38;;;;;;;4.05;2.10;;;;;;;18.12;34.48;101952.75;5021897;28;20112;-71
2023/04/27 03:26:07;;;;;;;4.15;2.10;;;;;;;18.10;34.42;101951.16;5021780;28;20041;-70
2023/04/27 03:28:32;;;;;;;3.58;1.95;;;;;;;18.09;34.47;101952.09;5021134;28;20084;-69
2023/04/27 03:30:57;;;;;;;4.45;2.38;;;;;;;18.08;34.72;101950.41;5021641;28;20135;-68
2023/04/27 03:33:23;;;;;;;4.73;2.10;;;;;;;18.06;34.63;101947.88;5021555;28;20044;-68
2023/04/27 03:35:55;;;;;;;7.05;2.20;;;;;;;18.04;34.59;101957.69;5022081;28;20259;-69
2023/04/27 03:38:21;;;;;;;4.03;2.10;;;;;;;18.07;34.71;101961.88;5021618;28;20086;-69
2023/04/27 03:40:46;;;;;;;4.55;2.30;;;;;;;18.05;34.45;101963.78;5021717;28;20033;-69
2023/04/27 03:43:11;;;;;;;5.20;2.30;;;;;;;18.06;34.77;101962.84;5021387;28;20497;-69
2023/04/27 03:45:36;;;;;;;4.63;1.90;;;;;;;18.06;34.39;101963.69;5021451;28;20087;-71
2023/04/27 03:48:02;;;;;;;5.40;2.53;;;;;;;18.04;34.49;101964.72;5021607;28;20044;-69
2023/04/27 03:50:27;;;;;;;5.45;2.42;;;;;;;18.02;34.32;101964.81;5021618;28;20631;-70
2023/04/27 03:52:53;;;;;;;5.82;2.35;;;;;;;17.98;34.39;101955.41;5021348;28;20116;-68
2023/04/27 03:55:18;;;;;;;4.22;2.30;;;;;;;18.03;34.50;101963.88;5021557;28;20056;-69
2023/04/27 03:57:43;;;;;;;4.32;2.08;;;;;;;18.03;34.19;101965.69;5021271;28;20033;-70
2023/04/27 04:00:11;;;;;;;3.80;2.10;;;;;;;18.00;34.45;101964.06;5021405;28;20029;-71
2023/04/27 04:02:36;;;;;;;5.70;2.30;;;;;;;18.02;34.48;101970.09;5020713;28;20270;-71
2023/04/27 04:05:02;;;;;;;4.38;2.22;;;;;;;18.00;34.18;101960.59;5021568;28;20033;-69
2023/04/27 04:07:27;;;;;;;3.70;1.90;;;;;;;18.01;34.48;101970.19;5021555;28;20612;-70
2023/04/27 04:09:52;;;;;;;4.68;2.20;;;;;;;18.00;34.56;101964.06;5021212;28;20147;-69
2023/04/27 04:12:17;;;;;;;4.05;2.42;;;;;;;17.99;34.58;101962.41;5020979;28;20042;-68
2023/04/27 04:14:43;;;;;;;4.70;2.20;;;;;;;18.00;33.93;101963.25;5020838;28;20163;-68
2023/04/27 04:17:09;;;;;;;4.38;2.17;;;;;;;17.97;34.59;101963.44;5020031;28;20309;-71
2023/04/27 04:19:35;;;;;;;4.32;2.30;;;;;;;17.95;34.26;101971.44;5019774;28;20026;-70
2023/04/27 04:22:00;;;;;;;5.50;2.28;;;;;;;17.98;34.28;101975.69;5020848;28;20053;-71
2023/04/27 04:24:25;;;;;;;4.32;2.15;;;;;;;17.95;34.37;101974.91;5021034;28;20400;-72
2023/04/27 04:26:50;;;;;;;5.15;2.22;;;;;;;17.97;34.10;101979.25;5020964;28;20037;-71
2023/04/27 04:29:16;;;;;;;6.87;2.63;;;;;;;17.97;34.21;101981.88;5020913;28;20091;-71
2023/04/27 04:31:41;;;;;;;4.65;2.47;;;;;;;17.95;34.33;101982.81;5019573;28;20317;-71
2023/04/27 04:34:07;;;;;;;4.80;2.20;;;;;;;17.93;34.31;101979.44;5020979;28;20103;-71
2023/04/27 04:36:32;;;;;;;5.65;2.40;;;;;;;17.94;34.29;101981.16;5021274;28;20029;-70
2023/04/27 04:38:58;;;;;;;3.97;2.30;;;;;;;17.92;34.24;101983.00;5021438;28;20025;-69
2023/04/27 04:41:23;;;;;;;5.53;2.45;;;;;;;17.94;34.43;101998.75;5025368;28;20039;-70
2023/04/27 04:43:48;;;;;;;6.68;2.75;;;;;;;17.90;34.32;101992.81;5024513;28;20029;-70
2023/04/27 04:46:14;;;;;;;5.18;2.15;;;;;;;17.91;34.20;101997.16;5024993;28;20029;-71
2023/04/27 04:48:39;;;;;;;4.72;2.25;;;;;;;17.88;34.42;101994.72;5024824;28;20087;-68
2023/04/27 04:51:05;;;;;;;3.47;1.80;;;;;;;17.85;34.55;101988.72;5024836;28;20445;-69
2023/04/27 04:53:31;;;;;;;3.70;1.95;;;;;;;17.89;35.29;101993.75;5024704;28;20041;-70
2023/04/27 04:55:56;;;;;;;3.90;2.05;;;;;;;17.92;35.28;101993.56;5025050;28;20818;-67
2023/04/27 04:58:21;;;;;;;4.88;1.90;;;;;;;17.95;35.07;101990.75;5024342;28;20034;-69
2023/04/27 05:00:47;;;;;;;4.05;2.10;;;;;;;18.00;35.08;101998.38;5024798;28;20466;-69
2023/04/27 05:03:12;;;;;;;4.23;1.80;;;;;;;18.05;35.42;101998.91;5024387;28;20021;-70
2023/04/27 05:05:37;;;;;;;2.87;1.53;;;;;;;18.11;35.06;102000.34;5024704;28;20753;-69
2023/04/27 05:08:02;;;;;;;4.03;1.90;;;;;;;18.16;35.12;101998.25;5024388;28;20271;-71
2023/04/27 05:10:28;;;;;;;4.10;1.90;;;;;;;18.19;34.94;101998.06;5024641;28;20258;-70
2023/04/27 05:12:53;;;;;;;3.88;1.70;;;;;;;18.25;34.87;102008.22;5024092;28;20033;-70
2023/04/27 05:15:18;;;;;;;3.70;1.52;;;;;;;18.27;34.85;102002.84;5024226;28;20104;-71
2023/04/27 05:17:44;;;;;;;3.13;1.77;;;;;;;18.30;34.84;101997.38;5024612;28;20291;-68
2023/04/27 05:20:10;;;;;;;4.43;2.08;;;;;;;18.32;34.74;102003.41;5023221;28;20118;-69
2023/04/27 05:22:36;;;;;;;3.78;1.73;;;;;;;18.36;34.56;102007.53;5024015;28;20112;-69
2023/04/27 05:25:02;;;;;;;3.65;1.80;;;;;;;18.37;34.73;102011.88;5024214;28;20421;-68
2023/04/27 05:27:27;;;;;;;3.90;2.00;;;;;;;18.39;34.79;102014.41;5022838;28;20440;-68
2023/04/27 05:29:52;;;;;;;4.60;1.77;;;;;;;18.42;34.67;102011.56;5024265;28;20091;-67
2023/04/27 05:32:17;;;;;;;3.70;1.67;;;;;;;18.45;34.59;102011.38;5023493;28;20282;-69
2023/04/27 05:34:43;;;;;;;3.95;1.85;;;;;;;18.47;34.77;102009.50;5024077;28;20095;-70
2023/04/27 05:37:09;;;;;;;4.00;1.73;;;;;;;18.47;34.77;102012.97;5022843;28;20486;-70
2023/04/27 05:39:34;;;;;;;4.53;1.88;;;;;;;18.48;34.59;102017.31;5022451;28;20025;-70
2023/04/27 05:42:01;;;;;;;4.80;1.75;;;;;;;18.52;34.66;102011.81;5023944;28;20029;-70
2023/04/27 05:44:28;;;;;;;4.60;1.80;;;;;;;18.54;34.59;102021.34;5023588;28;20052;-69
2023/04/27 05:46:53;;;;;;;4.68;2.00;;;;;;;18.57;34.44;102022.97;5023553;28;20397;-71
2023/04/27 05:49:19;;;;;;;4.00;1.63;;;;;;;18.57;34.38;102023.78;5024045;28;20029;-69
2023/04/27 05:51:44;;;;;;;3.63;1.70;;;;;;;18.57;34.32;102025.59;5022957;28;20058;-70
2023/04/27 05:54:10;;;;;;;4.85;2.05;;;;;;;18.58;34.50;102022.00;5023605;28;20449;-69
2023/04/27 05:56:36;;;;;;;3.60;1.95;;;;;;;18.59;34.55;102023.69;5023467;28;20048;-70
2023/04/27 05:59:02;;;;;;;4.57;1.88;;;;;;;18.59;34.24;102018.41;5023594;28;20037;-70
2023/04/27 06:01:27;;;;;;;3.80;1.70;;;;;;;18.62;34.74;102019.06;5023476;28;20026;-69
2023/04/27 06:03:53;;;;;;;4.00;1.90;;;;;;;18.63;34.42;102019.91;5023531;28;20041;-70
2023/04/27 06:06:18;;;;;;;3.55;1.80;;;;;;;18.63;34.37;102025.19;5023520;28;20037;-69
2023/04/27 06:08:43;;;;;;;3.47;1.60;;;;;;;18.65;34.42;102025.94;5023707;28;20065;-70
2023/04/27 06:11:08;;;;;;;3.93;1.70;;;;;;;18.68;34.41;102031.88;5023343;28;21050;-72
2023/04/27 06:13:34;;;;;;;4.22;1.88;;;;;;;18.65;34.43;102021.50;5023351;28;20267;-70
2023/04/27 06:16:00;;;;;;;4.80;1.57;;;;;;;18.68;34.52;102023.94;5023120;28;20043;-70
2023/04/27 06:18:25;;;;;;;4.85;1.67;;;;;;;18.71;34.23;102020.25;5023662;28;20258;-69
2023/04/27 06:20:51;;;;;;;2.85;1.50;;;;;;;18.72;34.22;102016.66;5022142;28;20037;-68
2023/04/27 06:23:16;;;;;;;3.17;1.50;;;;;;;18.73;34.33;102012.25;5022820;28;20607;-69
2023/04/27 06:25:43;;;;;;;4.20;1.88;;;;;;;18.75;34.37;102016.47;5023062;28;20469;-70
2023/04/27 06:28:08;;;;;;;3.80;1.40;;;;;;;18.75;34.35;102010.34;5023379;28;20047;-70
2023/04/27 06:30:33;;;;;;;3.38;1.80;;;;;;;18.76;34.41;102015.53;5025098;28;20401;-69
2023/04/27 06:32:58;;;;;;;3.37;1.70;;;;;;;18.75;34.35;102010.34;5023018;28;20038;-67
2023/04/27 06:35:24;;;;;;;3.87;1.90;;;;;;;18.76;34.51;102014.69;5023215;28;20263;-69
2023/04/27 06:37:50;;;;;;;4.38;1.80;;;;;;;18.76;34.78;102015.53;5022578;28;20814;-69
2023/04/27 06:40:15;;;;;;;3.88;1.80;;;;;;;18.79;34.86;102023.25;5021537;28;20169;-69
2023/04/27 06:42:41;;;;;;;3.53;1.50;;;;;;;18.81;35.03;102033.72;5020632;28;20052;-69
2023/04/27 06:45:07;;;;;;;3.97;1.73;;;;;;;18.80;35.08;102022.31;5021626;28;20033;-68
2023/04/27 06:47:32;;;;;;;5.65;1.70;;;;;;;18.81;35.32;102026.63;5019272;28;20033;-68
2023/04/27 06:49:57;;;;;;;3.40;1.70;;;;;;;18.80;35.37;102026.72;5021610;28;20033;-68
2023/04/27 06:52:23;;;;;;;3.97;2.00;;;;;;;18.80;35.37;102022.31;5022702;28;20512;-71
2023/04/27 06:54:48;;;;;;;3.42;1.85;;;;;;;18.81;35.15;102020.50;5022402;28;20148;-70
2023/04/27 06:57:13;;;;;;;3.25;1.80;;;;;;;18.80;35.66;102019.66;5022738;28;20406;-69
2023/04/27 06:59:38;;;;;;;3.67;1.60;;;;;;;18.83;35.33;102026.53;5022347;28;20041;-69
2023/04/27 07:02:04;;;;;;;4.10;1.77;;;;;;;18.83;35.53;102022.09;5021713;28;20034;-69
2023/04/27 07:04:30;;;;;;;3.10;1.38;;;;;;;18.85;35.37;102014.94;5020326;28;20076;-70
2023/04/27 07:06:56;;;;;;;4.65;1.92;;;;;;;18.85;35.37;102016.75;5022538;28;20044;-69
2023/04/27 07:09:21;;;;;;;3.60;1.85;;;;;;;18.85;35.79;102014.13;5022176;28;20346;-68
2023/04/27 07:11:46;;;;;;;3.77;1.60;;;;;;;18.89;35.49;102015.59;5022533;28;20041;-69
2023/04/27 07:14:12;;;;;;;4.10;1.73;;;;;;;18.89;35.42;101998.91;5022283;28;20281;-69
2023/04/27 07:16:37;;;;;;;4.00;1.60;;;;;;;18.92;35.48;102007.47;5021846;28;20352;-70
2023/04/27 07:19:03;;;;;;;4.93;1.65;;;;;;;18.92;35.60;102006.63;5021998;28;20034;-67
2023/04/27 07:21:28;;;;;;;3.45;1.73;;;;;;;18.95;35.41;102011.72;5022463;28;20478;-69
2023/04/27 07:23:53;;;;;;;6.45;1.75;;;;;;;18.98;35.45;102016.78;5021527;28;20038;-69
2023/04/27 07:26:20;;;;;;;4.10;1.75;;;;;;;18.96;35.66;102016.91;5022013;28;20036;-69
2023/04/27 07:28:46;;;;;;;4.10;1.70;;;;;;;18.94;35.75;102010.00;5021821;28;20363;-69
2023/04/27 07:31:11;;;;;;;5.32;1.98;;;;;;;18.98;36.00;102016.78;5021851;28;20521;-68
2023/04/27 07:33:37;;;;;;;4.13;1.70;;;;;;;19.00;36.01;102017.53;5021474;28;20175;-69
2023/04/27 07:36:03;;;;;;;3.38;1.42;;;;;;;19.02;35.67;102018.25;5021944;28;20048;-69
2023/04/27 07:38:30;;;;;;;3.92;1.80;;;;;;;19.00;35.85;102017.53;5021723;28;20029;-70
2023/04/27 07:40:57;;;;;;;4.00;1.60;;;;;;;18.99;35.92;102018.47;5021508;28;20029;-68
2023/04/27 07:43:24;;;;;;;3.85;2.00;;;;;;;19.01;36.02;102014.78;5021500;28;20040;-69
2023/04/27 07:45:49;;;;;;;5.07;1.80;;;;;;;19.02;35.80;102015.63;5019246;28;20048;-69
2023/04/27 07:48:15;;;;;;;5.13;1.63;;;;;;;19.05;35.96;102014.59;5018827;28;20394;-71
2023/04/27 07:50:40;;;;;;;4.95;1.80;;;;;;;19.10;36.02;102008.03;5021041;28;20548;-71
2023/04/27 07:53:05;;;;;;;8.63;2.38;;;;;;;19.13;37.26;102018.38;5020030;28;20064;-71
2023/04/27 07:55:31;;;;;;;7.00;2.42;;;;;;;19.15;37.98;102011.22;5020916;28;20060;-70
2023/04/27 07:57:56;;;;;;;9.40;3.17;;;;;;;19.16;38.76;102004.97;5021199;28;20041;-72
2023/04/27 08:00:22;;;;;;;8.63;3.13;;;;;;;19.18;38.99;102004.88;5021398;28;20041;-70
2023/04/27 08:02:49;;;;;;;8.93;2.97;;;;;;;19.20;39.23;102005.59;5019648;28;20025;-69
2023/04/27 08:05:15;;;;;;;10.50;2.60;;;;;;;19.21;39.37;102005.50;5021689;28;20095;-73
2023/04/27 08:07:40;;;;;;;7.25;2.70;;;;;;;19.20;39.31;102011.75;5021291;28;20041;-72
2023/04/27 08:10:07;;;;;;;8.68;2.60;;;;;;;19.21;39.44;102012.59;5022206;28;20037;-72
2023/04/27 08:12:32;;;;;;;8.75;2.42;;;;;;;19.20;39.31;102005.59;5021356;28;20033;-73
2023/04/27 08:14:58;;;;;;;8.20;2.80;;;;;;;19.23;39.27;102009.84;5019259;28;20103;-71
2023/04/27 08:17:23;;;;;;;7.25;2.80;;;;;;;19.23;39.30;102012.50;5019692;28;20029;-71
2023/04/27 08:19:48;;;;;;;7.95;2.92;;;;;;;19.21;39.23;102015.22;5021598;28;20037;-70
2023/04/27 08:22:13;;;;;;;7.27;2.77;;;;;;;19.21;39.63;102013.44;5020808;28;20029;-71
2023/04/27 08:24:40;;;;;;;5.85;2.55;;;;;;;19.20;39.20;102011.75;5020864;28;20808;-71
2023/04/27 08:27:06;;;;;;;7.15;2.75;;;;;;;19.24;39.17;102003.63;5021520;28;20117;-73
2023/04/27 08:29:31;;;;;;;7.75;2.50;;;;;;;19.23;39.08;101994.81;5021617;28;20042;-73
2023/04/27 08:31:59;;;;;;;7.13;2.50;;;;;;;19.23;39.06;101992.19;5019840;28;20061;-72
2023/04/27 08:34:24;;;;;;;6.07;2.42;;;;;;;19.16;39.03;101972.44;5021384;28;20095;-71
2023/04/27 08:36:50;;;;;;;6.63;2.40;;;;;;;19.23;38.74;101983.41;5019575;28;20033;-71
2023/04/27 08:39:16;;;;;;;7.38;2.80;;;;;;;19.24;38.97;101982.47;5019691;28;20033;-71
2023/04/27 08:41:42;;;;;;;6.43;2.25;;;;;;;19.21;38.60;101979.06;5019578;28;20152;-71
2023/04/27 08:44:08;;;;;;;9.38;2.78;;;;;;;19.17;38.57;101980.25;5021003;28;20490;-71
2023/04/27 08:46:35;;;;;;;8.77;2.50;;;;;;;19.18;38.57;101984.59;5020148;28;20124;-70
2023/04/27 08:49:00;;;;;;;7.25;2.53;;;;;;;19.15;38.51;101982.16;5020799;28;20041;-71
2023/04/27 08:51:27;;;;;;;8.43;2.40;;;;;;;19.16;38.35;101975.06;5019958;28;20037;-72
2023/04/27 08:53:55;;;;;;;8.32;2.45;;;;;;;19.16;38.22;101981.19;5021301;28;20033;-71
2023/04/27 08:56:27;;;;;;;5.55;2.35;;;;;;;19.17;38.27;101987.34;5021232;28;20029;-69
2023/04/27 08:58:53;;;;;;;6.63;2.47;;;;;;;19.18;38.07;101984.59;5021319;28;20072;-69
2023/04/27 09:01:20;;;;;;;7.78;2.20;;;;;;;19.14;38.24;101974.34;5020889;28;20037;-69
2023/04/27 09:03:46;;;;;;;9.35;2.63;;;;;;;19.17;38.37;101980.25;5019597;28;20029;-70
2023/04/27 09:06:12;;;;;;;7.47;2.38;;;;;;;19.18;38.18;101984.59;5020485;28;20033;-73
2023/04/27 09:08:43;;;;;;;8.00;2.42;;;;;;;19.15;38.59;101976.88;5019785;28;20760;-72
2023/04/27 09:11:08;;;;;;;6.45;2.20;;;;;;;19.19;38.30;101980.97;5019703;28;20141;-70
2023/04/27 09:13:36;;;;;;;4.90;2.13;;;;;;;19.20;38.44;101976.53;5020588;28;20562;-71
2023/04/27 09:16:02;;;;;;;5.05;1.98;;;;;;;19.17;38.37;101980.25;5020899;28;20394;-70
2023/04/27 09:18:27;;;;;;;8.02;2.03;;;;;;;19.20;38.45;101982.69;5021201;28;20063;-73
2023/04/27 09:20:53;;;;;;;5.50;2.10;;;;;;;19.20;38.06;101984.47;5020903;28;20087;-69
2023/04/27 09:23:29;;;;;;;7.00;2.28;;;;;;;19.18;38.49;101979.31;5020144;28;20581;-71
2023/04/27 09:25:56;;;;;;;5.78;1.90;;;;;;;19.18;38.14;101971.38;5021286;28;20033;-69
2023/04/27 09:28:23;;;;;;;4.88;2.20;;;;;;;19.17;38.18;101971.47;5024424;28;20671;-72
2023/04/27 09:30:57;;;;;;;5.95;1.98;;;;;;;19.15;38.21;101968.06;5024269;28;20048;-69
2023/04/27 09:33:28;;;;;;;4.28;1.90;;;;;;;19.17;38.31;101974.97;5019022;28;20099;-73
2023/04/27 09:35:53;;;;;;;5.70;2.00;;;;;;;19.19;38.30;101964.28;5021907;28;20030;-71
2023/04/27 09:38:20;;;;;;;5.07;2.13;;;;;;;19.25;38.15;101973.59;5022097;28;20037;-73
2023/04/27 09:40:47;;;;;;;5.57;2.40;;;;;;;19.23;38.19;101957.00;5023574;28;20033;-71
2023/04/27 09:43:13;;;;;;;7.75;2.70;;;;;;;19.34;37.80;101968.53;5022800;28;20120;-70
2023/04/27 09:45:38;;;;;;;5.63;1.98;;;;;;;19.28;37.52;101947.81;5022205;28;20033;-70
2023/04/27 09:48:05;;;;;;;6.43;1.88;;;;;;;19.37;38.05;101967.47;5023200;28;20037;-71
2023/04/27 09:50:35;;;;;;;5.28;2.00;;;;;;;19.28;38.11;101963.66;5022980;28;20040;-70
2023/04/27 09:53:05;;;;;;;4.45;1.80;;;;;;;19.29;38.14;101959.22;5021027;28;20435;-70
2023/04/27 09:56:13;;;;;;;4.93;1.90;;;;;;;19.26;38.30;101965.53;5022276;28;20490;-69
2023/04/27 09:58:57;;;;;;;4.95;2.10;;;;;;;19.25;38.01;101952.44;5004456;28;20064;-70
2023/04/27 10:01:35;;;;;;;4.90;1.90;;;;;;;19.24;37.94;101948.13;5020029;28;20059;-69
2023/04/27 10:04:33;;;;;;;4.18;1.63;;;;;;;19.31;37.70;101947.59;5021904;28;20042;-70
2023/04/27 10:07:00;;;;;;;4.55;2.00;;;;;;;19.40;37.70;101943.47;5023065;28;20124;-79
2023/04/27 10:09:42;;;;;;;4.78;1.80;;;;;;;19.35;37.82;101956.16;5025020;28;20037;-72
2023/04/27 10:12:13;;;;;;;5.15;1.80;;;;;;;19.29;37.82;101951.28;5022936;28;20040;-74
2023/04/27 10:14:51;;;;;;;6.18;1.88;;;;;;;19.25;38.26;101950.66;5023872;28;20044;-74
2023/04/27 10:17:17;;;;;;;4.78;1.90;;;;;;;19.24;37.96;101948.97;5022655;28;20037;-74
2023/04/27 10:19:56;;;;;;;6.47;2.00;;;;;;;19.21;37.98;101946.53;5055425;28;20040;-73
2023/04/27 10:22:21;;;;;;;6.43;1.80;;;;;;;19.23;37.86;101955.19;5021988;28;20049;-72
2023/04/27 10:24:51;;;;;;;3.55;1.50;;;;;;;19.20;37.86;101953.63;5021639;28;20462;-71
2023/04/27 10:27:20;;;;;;;3.35;1.60;;;;;;;19.18;37.75;101954.66;5019463;28;20037;-70
2023/04/27 10:29:46;;;;;;;6.45;1.88;;;;;;;19.26;37.41;101952.34;5011414;28;20021;-71
2023/04/27 10:32:23;;;;;;;4.53;1.92;;;;;;;19.30;37.42;101958.28;5022122;28;20032;-70
2023/04/27 10:35:02;;;;;;;4.10;1.83;;;;;;;19.30;37.80;101953.81;5022320;28;20098;-70
2023/04/27 10:37:40;;;;;;;5.03;1.63;;;;;;;19.29;38.00;101956.56;5020032;28;20045;-72
2023/04/27 10:40:13;;;;;;;4.00;1.70;;;;;;;19.27;37.78;101955.84;5022582;28;20025;-70
2023/04/27 10:42:40;;;;;;;4.60;2.00;;;;;;;19.25;37.84;101947.16;5021839;28;20033;-70
2023/04/27 10:45:05;;;;;;;4.20;1.70;;;;;;;19.21;38.12;101939.44;5022350;28;20017;-71
2023/04/27 10:47:39;;;;;;;4.57;1.83;;;;;;;19.24;37.91;101940.19;5021591;28;20034;-69
2023/04/27 10:50:07;;;;;;;3.72;1.67;;;;;;;19.26;37.90;101935.63;5022221;28;20486;-69
2023/04/27 10:52:32;;;;;;;4.30;1.63;;;;;;;19.22;37.66;101919.16;5021246;28;20056;-70
2023/04/27 10:55:11;;;;;;;4.53;1.80;;;;;;;19.19;37.76;101925.50;5021384;28;20037;-72
2023/04/27 10:57:48;;;;;;;5.32;1.98;;;;;;;19.19;37.83;101928.13;5022799;28;20091;-71
2023/04/27 11:00:16;;;;;;;4.38;1.60;;;;;;;19.19;37.52;101920.19;5022442;28;20528;-72
2023/04/27 11:02:41;;;;;;;4.97;1.58;;;;;;;19.21;37.59;101917.47;5021079;28;20033;-71
2023/04/27 11:05:32;;;;;;;4.65;2.03;;;;;;;19.17;37.70;101914.19;5022298;28;20099;-71
2023/04/27 11:08:08;;;;;;;4.40;1.70;;;;;;;19.16;37.67;101909.00;5021308;28;20083;-72
2023/04/27 11:10:36;;;;;;;4.25;1.75;;;;;;;19.17;37.68;101905.44;5022658;28;20095;-70
2023/04/27 11:13:13;;;;;;;4.15;1.75;;;;;;;19.12;37.52;101903.09;5021835;28;20071;-70
2023/04/27 11:15:43;;;;;;;4.18;1.88;;;;;;;19.15;37.54;101894.09;5003983;28;20474;-70
2023/04/27 11:18:08;;;;;;;3.83;2.10;;;;;;;19.13;37.54;101899.47;5020800;28;20119;-70
2023/04/27 11:20:33;;;;;;;5.03;2.33;;;;;;;19.12;37.57;101902.22;5020998;28;20112;-70
2023/04/27 11:22:59;;;;;;;4.05;1.50;;;;;;;19.13;37.68;101902.13;5017698;28;20042;-72